Time;durP1;ratioP1;P1;durP2;ratioP2;P2;SDS_P1;SDS_P2;PMS_P1;PMS_P2;Temp;Humidity;BMP_temperature;BMP_pressure;BME280_temperature;BME280_humidity;BME280_pressure;Samples;Min_cycle;Max_cycle;Signal;HPM_P1;HPM_P2
2021/12/12 07:59:21;;;;;;;21.77;14.77;;;;;;;6.25;100.00;101888.94;5271743;28;20402;-73
2021/12/12 08:01:52;;;;;;;18.65;13.20;;;;;;;6.26;100.00;101891.47;5276316;28;20049;-73
2021/12/12 08:04:27;;;;;;;16.60;14.05;;;;;;;6.29;100.00;101895.69;5256672;28;20389;-74
2021/12/12 08:07:00;;;;;;;19.08;14.27;;;;;;;6.32;100.00;101898.78;5258362;28;20021;-73
2021/12/12 08:09:32;;;;;;;18.95;13.55;;;;;;;6.35;100.00;101900.25;5259714;28;20021;-74
2021/12/12 08:12:05;;;;;;;23.17;13.45;;;;;;;6.39;100.00;101906.09;5255504;28;20084;-73
2021/12/12 08:14:37;;;;;;;19.40;12.57;;;;;;;6.41;100.00;101904.78;5237923;28;20053;-73
2021/12/12 08:17:10;;;;;;;18.52;12.50;;;;;;;6.43;100.00;101902.66;5252459;28;20114;-73
2021/12/12 08:19:41;;;;;;;19.33;13.30;;;;;;;6.45;100.00;101908.78;5259142;28;20040;-73
2021/12/12 08:22:13;;;;;;;19.25;12.57;;;;;;;6.48;100.00;101915.72;5257404;28;20029;-73
2021/12/12 08:24:45;;;;;;;20.83;15.23;;;;;;;6.51;100.00;101920.75;5258749;28;20071;-74
2021/12/12 08:27:17;;;;;;;17.45;12.63;;;;;;;6.52;100.00;101927.97;5258144;28;20067;-75
2021/12/12 08:29:50;;;;;;;14.65;12.13;;;;;;;6.57;100.00;101932.75;5259084;28;20030;-73
2021/12/12 08:32:23;;;;;;;21.33;12.63;;;;;;;6.60;100.00;101935.88;5253280;28;20022;-73
2021/12/12 08:34:54;;;;;;;19.92;12.35;;;;;;;6.62;100.00;101932.88;5257173;28;20477;-73
2021/12/12 08:37:27;;;;;;;16.73;12.15;;;;;;;6.62;100.00;101938.38;5258891;28;20033;-72
2021/12/12 08:40:02;;;;;;;19.35;13.23;;;;;;;6.62;100.00;101939.25;5258579;28;20037;-73
2021/12/12 08:42:34;;;;;;;15.82;12.63;;;;;;;6.64;100.00;101939.84;5258349;28;20021;-73
2021/12/12 08:45:10;;;;;;;23.45;13.90;;;;;;;6.65;100.00;101946.22;5258426;28;20029;-72
2021/12/12 08:47:42;;;;;;;17.85;12.15;;;;;;;6.67;100.00;101935.75;5255905;28;20025;-73
2021/12/12 08:50:18;;;;;;;19.42;13.25;;;;;;;6.69;100.00;101947.41;5257939;28;20056;-74
2021/12/12 08:52:51;;;;;;;18.25;12.65;;;;;;;6.71;100.00;101948.00;5258553;28;20112;-75
2021/12/12 08:55:35;;;;;;;18.10;13.23;;;;;;;6.75;100.00;101952.81;5257226;28;20025;-73
2021/12/12 08:58:15;;;;;;;19.25;11.70;;;;;;;6.77;100.00;101951.72;5237675;28;20045;-74
2021/12/12 09:00:59;;;;;;;19.02;13.55;;;;;;;6.79;100.00;101944.91;5254276;28;20021;-72
2021/12/12 09:03:30;;;;;;;19.65;12.38;;;;;;;6.80;100.00;101957.63;5236918;28;20033;-73
2021/12/12 09:06:03;;;;;;;22.27;13.20;;;;;;;6.83;100.00;101962.66;5238255;28;20017;-73
2021/12/12 09:08:58;;;;;;;19.05;11.90;;;;;;;6.86;100.00;101967.69;5252967;28;20292;-72
2021/12/12 09:11:37;;;;;;;21.53;13.47;;;;;;;6.87;100.00;101960.25;5242216;28;20033;-73
2021/12/12 09:14:52;;;;;;;20.73;13.30;;;;;;;6.89;100.00;101958.94;5243399;28;20280;-73
2021/12/12 09:18:04;;;;;;;19.67;14.48;;;;;;;6.91;100.00;101964.22;5242173;28;20030;-74
2021/12/12 09:21:05;;;;;;;17.25;12.30;;;;;;;6.91;100.00;101964.22;5242187;28;20110;-73
2021/12/12 09:23:45;;;;;;;19.88;12.52;;;;;;;6.93;100.00;101973.94;5236073;28;20022;-74
2021/12/12 09:26:21;;;;;;;17.67;13.15;;;;;;;6.94;100.00;101975.63;5228872;28;20100;-74
2021/12/12 09:29:07;;;;;;;17.98;12.65;;;;;;;6.96;100.00;101978.97;5243858;28;20525;-74
2021/12/12 09:31:45;;;;;;;16.65;12.45;;;;;;;6.96;100.00;101984.50;5242646;28;20428;-74
2021/12/12 09:34:25;;;;;;;16.98;12.55;;;;;;;6.97;100.00;101982.56;5242901;28;20021;-74
2021/12/12 09:37:05;;;;;;;18.40;11.73;;;;;;;7.00;100.00;101984.00;5240835;28;20033;-73
2021/12/12 09:39:48;;;;;;;17.20;11.43;;;;;;;7.02;100.00;101988.22;5241835;28;20091;-74
2021/12/12 09:42:49;;;;;;;17.95;12.63;;;;;;;7.07;100.00;101991.09;5237216;28;20088;-75
2021/12/12 09:45:45;;;;;;;19.00;12.80;;;;;;;7.06;100.00;101994.13;5242632;28;20034;-74
2021/12/12 09:51:36;;;;;;;17.70;11.80;;;;;;;7.11;100.00;101997.00;5243649;28;20038;-73
2021/12/12 09:54:31;;;;;;;23.00;12.98;;;;;;;7.13;100.00;101995.69;5239385;28;20045;-73
2021/12/12 09:57:22;;;;;;;19.65;13.77;;;;;;;7.15;100.00;102003.69;5224883;28;20084;-73
2021/12/12 10:00:16;;;;;;;16.83;12.15;;;;;;;7.20;100.00;102001.06;5242862;28;20496;-74
2021/12/12 10:03:13;;;;;;;20.05;12.25;;;;;;;7.23;100.00;102000.56;5242050;28;20143;-74
2021/12/12 10:06:01;;;;;;;16.80;12.38;;;;;;;7.27;100.00;101996.28;5241394;28;20022;-73
2021/12/12 10:08:44;;;;;;;16.05;12.35;;;;;;;7.26;100.00;101991.84;5242158;28;20440;-74
2021/12/12 10:11:48;;;;;;;18.30;13.63;;;;;;;7.26;100.00;102000.13;5237670;28;20037;-75
2021/12/12 10:14:31;;;;;;;16.45;12.85;;;;;;;7.30;100.00;101997.72;5233489;28;20030;-73
2021/12/12 10:17:11;;;;;;;19.33;12.30;;;;;;;7.30;100.00;102001.31;5242144;28;20033;-74
2021/12/12 10:19:42;;;;;;;17.48;12.38;;;;;;;7.34;100.00;101996.16;5237951;28;20022;-74
2021/12/12 10:22:51;;;;;;;18.77;13.60;;;;;;;7.36;100.00;102005.03;5241938;28;20485;-74
2021/12/12 10:25:47;;;;;;;17.85;13.40;;;;;;;7.37;100.00;102007.56;5242546;28;20277;-74
2021/12/12 10:28:21;;;;;;;20.08;13.35;;;;;;;7.37;100.00;102002.03;5239289;28;20034;-74
2021/12/12 10:31:11;;;;;;;17.75;12.50;;;;;;;7.42;100.00;102003.25;5241774;28;20036;-74
2021/12/12 10:33:48;;;;;;;20.05;14.15;;;;;;;7.40;100.00;101998.78;5243159;28;20491;-75
2021/12/12 10:36:26;;;;;;;20.83;14.27;;;;;;;7.42;100.00;102003.25;5242380;28;20108;-73
2021/12/12 10:39:20;;;;;;;24.83;14.30;;;;;;;7.43;100.00;102000.22;5232911;28;20079;-73
2021/12/12 10:41:59;;;;;;;22.65;14.60;;;;;;;7.44;100.00;102001.06;5221715;28;20034;-73
2021/12/12 10:44:34;;;;;;;22.67;17.27;;;;;;;7.45;100.00;102005.53;5232912;28;20029;-74
2021/12/12 10:47:14;;;;;;;19.73;14.83;;;;;;;7.48;100.00;102000.34;5241626;28;20025;-74
2021/12/12 10:50:12;;;;;;;21.50;14.68;;;;;;;7.49;100.00;102002.03;5241331;28;20284;-72
2021/12/12 10:52:53;;;;;;;20.60;15.05;;;;;;;7.49;100.00;102003.94;5242401;28;20025;-72
2021/12/12 10:55:41;;;;;;;22.05;14.07;;;;;;;7.50;100.00;102005.63;5241432;28;20350;-73
2021/12/12 10:58:34;;;;;;;19.13;14.13;;;;;;;7.53;100.00;102010.66;5241686;28;20060;-74
2021/12/12 11:01:10;;;;;;;20.52;14.18;;;;;;;7.56;100.00;102007.41;5241812;28;20083;-73
2021/12/12 11:03:49;;;;;;;17.08;13.85;;;;;;;7.57;100.00;102009.94;5240367;28;20034;-76
2021/12/12 11:06:29;;;;;;;20.73;14.98;;;;;;;7.62;100.00;102009.25;5235203;28;20079;-76
2021/12/12 11:09:12;;;;;;;17.15;13.55;;;;;;;7.64;100.00;102004.28;5241031;28;20026;-77
2021/12/12 11:11:55;;;;;;;19.30;13.13;;;;;;;7.65;100.00;102003.22;5240409;28;20036;-76
2021/12/12 11:14:35;;;;;;;17.40;13.32;;;;;;;7.70;100.00;102006.09;5227885;28;20021;-75
2021/12/12 11:17:14;;;;;;;15.73;12.13;;;;;;;7.72;100.00;102008.59;5238226;28;20041;-78
2021/12/12 11:19:53;;;;;;;17.20;13.88;;;;;;;7.76;100.00;102004.28;5240859;28;20037;-78
2021/12/12 11:22:29;;;;;;;21.23;16.55;;;;;;;7.84;100.00;102001.97;5235521;28;20034;-78
2021/12/12 11:25:17;;;;;;;17.27;11.98;;;;;;;7.86;100.00;102004.50;5239883;28;20405;-78
2021/12/12 11:27:57;;;;;;;12.05;10.55;;;;;;;7.92;100.00;101991.63;5241746;28;20032;-77
2021/12/12 11:30:38;;;;;;;14.13;10.65;;;;;;;7.93;100.00;101987.81;5239715;28;20044;-80
2021/12/12 11:33:12;;;;;;;12.07;10.63;;;;;;;7.97;100.00;101986.22;5240981;28;20120;-79
2021/12/12 11:35:50;;;;;;;12.85;10.63;;;;;;;8.02;100.00;101986.31;5241296;28;20029;-78
2021/12/12 11:38:30;;;;;;;13.60;10.55;;;;;;;8.07;100.00;101994.72;5240013;28;20033;-77
2021/12/12 11:41:34;;;;;;;15.23;10.90;;;;;;;8.10;100.00;101996.16;5234135;28;20018;-75
2021/12/12 11:44:19;;;;;;;10.55;9.38;;;;;;;8.09;100.00;101989.78;5240495;28;20036;-71
2021/12/12 11:47:23;;;;;;;12.80;10.27;;;;;;;8.12;100.00;102003.09;5241055;28;20029;-74
2021/12/12 11:50:14;;;;;;;11.60;9.70;;;;;;;8.14;100.00;101998.19;5241052;28;20030;-72
2021/12/12 11:52:53;;;;;;;11.45;9.88;;;;;;;8.13;100.00;101999.28;5240468;28;20030;-75
2021/12/12 11:55:32;;;;;;;12.18;10.50;;;;;;;8.13;100.00;101993.75;5241079;28;20036;-76
2021/12/12 11:58:34;;;;;;;11.35;9.70;;;;;;;8.15;100.00;101996.25;5238986;28;20057;-76
2021/12/12 12:01:15;;;;;;;11.10;10.00;;;;;;;8.17;100.00;102003.22;5239814;28;20048;-78
2021/12/12 12:04:00;;;;;;;11.35;10.25;;;;;;;8.17;100.00;102000.44;5240955;28;20087;-76
2021/12/12 12:06:50;;;;;;;12.02;10.18;;;;;;;8.16;100.00;101993.25;5239738;28;20032;-76
2021/12/12 12:10:03;;;;;;;12.65;9.50;;;;;;;8.19;100.00;101987.22;5241323;28;20091;-77
2021/12/12 12:13:14;;;;;;;12.15;9.82;;;;;;;8.22;100.00;101996.97;5231704;28;20022;-74
2021/12/12 12:15:54;;;;;;;10.80;9.77;;;;;;;8.20;100.00;102005.47;5257410;28;20086;-76
2021/12/12 12:18:54;;;;;;;12.27;9.95;;;;;;;8.24;100.00;102006.69;5245080;28;20437;-76
2021/12/12 12:21:32;;;;;;;11.20;9.95;;;;;;;8.26;100.00;102007.28;5240609;28;20030;-77
2021/12/12 12:24:39;;;;;;;14.48;10.07;;;;;;;8.30;100.00;102009.53;5241011;28;20033;-76
2021/12/12 12:27:18;;;;;;;15.40;13.77;;;;;;;8.30;100.00;102012.31;5223994;28;20037;-73
2021/12/12 12:30:27;;;;;;;11.95;10.75;;;;;;;8.32;100.00;102015.66;5240015;28;20049;-74
2021/12/12 12:33:26;;;;;;;10.98;9.88;;;;;;;8.37;100.00;102010.25;5240418;28;20033;-74
2021/12/12 12:36:19;;;;;;;14.27;11.13;;;;;;;8.38;100.00;102011.91;5238130;28;20026;-74
2021/12/12 12:39:18;;;;;;;12.38;11.07;;;;;;;8.44;100.00;102016.50;5239697;28;20080;-74
2021/12/12 12:42:01;;;;;;;12.23;10.82;;;;;;;8.44;100.00;102019.25;5239921;28;20045;-74
2021/12/12 12:45:14;;;;;;;12.80;10.93;;;;;;;8.44;100.00;102016.50;5242295;28;20035;-73
2021/12/12 12:48:23;;;;;;;12.48;11.18;;;;;;;8.45;100.00;102026.47;5237182;28;20042;-73
2021/12/12 12:51:45;;;;;;;12.57;11.32;;;;;;;8.47;100.00;102016.84;5244631;28;20428;-74
2021/12/12 12:54:30;;;;;;;12.55;11.25;;;;;;;8.48;100.00;102026.78;5220597;28;20045;-75
2021/12/12 12:57:30;;;;;;;14.35;11.57;;;;;;;8.51;100.00;102028.22;5239676;28;20026;-75
2021/12/12 13:00:07;;;;;;;14.00;12.60;;;;;;;8.52;100.00;102027.16;5244103;28;20516;-75
2021/12/12 13:03:16;;;;;;;14.88;13.00;;;;;;;8.55;100.00;102031.34;5242612;28;20063;-75
2021/12/12 13:06:04;;;;;;;12.85;11.55;;;;;;;8.57;100.00;102037.47;5241555;28;20116;-77
2021/12/12 13:08:50;;;;;;;13.73;11.20;;;;;;;8.59;100.00;102033.38;5243055;28;20037;-77
2021/12/12 13:11:44;;;;;;;13.63;11.15;;;;;;;8.59;100.00;102036.16;5242806;28;20028;-78
2021/12/12 13:14:45;;;;;;;13.43;12.02;;;;;;;8.59;100.00;102030.63;5230480;28;20045;-78
2021/12/12 13:17:53;;;;;;;13.05;11.65;;;;;;;8.62;100.00;102030.13;5242631;28;20074;-77
2021/12/12 13:20:34;;;;;;;14.50;10.85;;;;;;;8.61;100.00;102038.66;5243092;28;20037;-79
2021/12/12 13:23:28;;;;;;;13.63;12.23;;;;;;;8.59;100.00;102036.16;5239454;28;20497;-79
2021/12/12 13:26:09;;;;;;;12.93;10.63;;;;;;;8.59;100.00;102033.38;5240080;28;20057;-80
2021/12/12 13:29:14;;;;;;;13.00;11.07;;;;;;;8.63;100.00;102034.56;5238125;28;20363;-80
2021/12/12 13:32:05;;;;;;;19.80;17.35;;;;;;;8.63;100.00;102039.25;5240507;28;20041;-80
2021/12/12 13:34:47;;;;;;;11.38;10.18;;;;;;;8.65;100.00;102035.16;5223512;28;20083;-81
2021/12/12 13:37:30;;;;;;;12.15;10.95;;;;;;;8.66;100.00;102041.50;5235227;28;20095;-81
2021/12/12 13:40:23;;;;;;;13.18;11.88;;;;;;;8.68;100.00;102042.94;5242760;28;20528;-81
2021/12/12 13:43:39;;;;;;;12.77;11.40;;;;;;;8.69;100.00;102052.94;5239796;28;20056;-81
2021/12/12 13:46:33;;;;;;;12.80;11.50;;;;;;;8.69;100.00;102047.41;5222261;28;20037;-80
2021/12/12 13:49:11;;;;;;;12.65;11.32;;;;;;;8.70;100.00;102053.78;5243440;28;20044;-80
2021/12/12 13:51:51;;;;;;;12.32;11.10;;;;;;;8.70;100.00;102059.31;5242820;28;20032;-80
2021/12/12 13:54:42;;;;;;;12.63;11.43;;;;;;;8.72;100.00;102057.13;5243491;28;20034;-79
2021/12/12 13:57:19;;;;;;;13.25;11.85;;;;;;;8.71;100.00;102061.81;5242961;28;20029;-82
2021/12/12 14:00:11;;;;;;;14.30;12.80;;;;;;;8.71;100.00;102050.75;5242170;28;20026;-81
2021/12/12 14:02:47;;;;;;;14.65;13.10;;;;;;;8.73;100.00;102057.97;5243020;28;20435;-79
2021/12/12 14:05:29;;;;;;;13.05;11.65;;;;;;;8.70;100.00;102060.13;5241752;28;20036;-78
2021/12/12 14:08:11;;;;;;;15.63;13.23;;;;;;;8.75;100.00;102066.88;5241184;28;20026;-79
2021/12/12 14:10:58;;;;;;;16.48;14.75;;;;;;;8.72;100.00;102062.66;5242740;28;20030;-79
2021/12/12 14:13:35;;;;;;;13.50;12.20;;;;;;;8.75;100.00;102072.41;5235279;28;20025;-79
2021/12/12 14:16:14;;;;;;;15.98;12.82;;;;;;;8.76;100.00;102068.53;5242493;28;20029;-79
2021/12/12 14:18:51;;;;;;;13.43;12.13;;;;;;;8.76;100.00;102068.53;5241227;28;20034;-78
2021/12/12 14:21:24;;;;;;;14.25;12.63;;;;;;;8.80;100.00;102075.25;5222810;28;20076;-78
2021/12/12 14:23:55;;;;;;;14.00;12.50;;;;;;;8.80;100.00;102072.50;5236363;28;20025;-78
2021/12/12 14:26:39;;;;;;;15.18;13.60;;;;;;;8.83;100.00;102074.75;5242046;28;20037;-78
2021/12/12 14:29:15;;;;;;;15.23;13.73;;;;;;;8.83;100.00;102075.59;5238663;28;20038;-78
2021/12/12 14:31:59;;;;;;;16.02;14.30;;;;;;;8.84;100.00;102081.94;5241237;28;20018;-78
2021/12/12 14:34:42;;;;;;;15.07;13.57;;;;;;;8.84;100.00;102076.41;5222409;28;20045;-77
2021/12/12 14:37:19;;;;;;;15.13;13.55;;;;;;;8.85;100.00;102084.47;5241018;28;20166;-82
2021/12/12 14:39:52;;;;;;;14.77;13.20;;;;;;;8.86;100.00;102086.16;5243387;28;20064;-76
2021/12/12 14:42:27;;;;;;;15.57;13.85;;;;;;;8.88;100.00;102088.69;5241649;28;20038;-77
2021/12/12 14:45:19;;;;;;;16.00;14.30;;;;;;;8.88;100.00;102095.06;5241798;28;20018;-78
2021/12/12 14:47:57;;;;;;;14.50;12.98;;;;;;;8.88;100.00;102094.22;5234064;28;20038;-78
2021/12/12 14:50:41;;;;;;;18.25;16.38;;;;;;;8.85;100.00;102095.56;5242620;28;20499;-79
2021/12/12 14:53:17;;;;;;;16.95;15.00;;;;;;;8.86;100.00;102099.16;5242467;28;20372;-79
2021/12/12 14:56:01;;;;;;;17.33;15.20;;;;;;;8.86;100.00;102101.91;5241674;28;20104;-79
2021/12/12 14:58:42;;;;;;;16.90;15.15;;;;;;;8.89;100.00;102101.41;5242395;28;20053;-79
2021/12/12 15:01:23;;;;;;;16.30;14.70;;;;;;;8.89;100.00;102104.19;5242129;28;20408;-79
2021/12/12 15:03:58;;;;;;;17.05;15.05;;;;;;;8.90;100.00;102103.13;5236579;28;20436;-79
2021/12/12 15:06:41;;;;;;;17.23;15.43;;;;;;;8.90;100.00;102111.41;5241974;28;20029;-79
2021/12/12 15:09:15;;;;;;;17.13;15.40;;;;;;;8.91;100.00;102113.06;5242131;28;20420;-79
2021/12/12 15:11:56;;;;;;;18.38;16.48;;;;;;;8.91;100.00;102113.06;5240478;28;20049;-77
2021/12/12 15:14:31;;;;;;;18.77;16.98;;;;;;;8.93;100.00;102113.69;5221840;28;20133;-80
2021/12/12 15:17:12;;;;;;;17.63;15.68;;;;;;;8.96;100.00;102118.72;5224209;28;20022;-80
2021/12/12 15:19:49;;;;;;;19.02;17.02;;;;;;;8.96;100.00;102107.63;5241781;28;20481;-80
2021/12/12 15:22:24;;;;;;;17.77;15.98;;;;;;;8.98;100.00;102116.53;5236532;28;20483;-81
2021/12/12 15:24:58;;;;;;;17.65;15.77;;;;;;;8.99;100.00;102118.22;5243304;28;20025;-80
2021/12/12 15:27:37;;;;;;;17.52;15.73;;;;;;;9.04;100.00;102125.78;5239414;28;20030;-81
2021/12/12 15:30:16;;;;;;;19.60;17.63;;;;;;;9.07;100.00;102130.81;5241962;28;20106;-80
2021/12/12 15:32:51;;;;;;;17.98;16.08;;;;;;;9.10;100.00;102133.06;5226087;28;20088;-81
2021/12/12 15:35:30;;;;;;;16.20;14.65;;;;;;;9.13;100.00;102136.19;5221522;28;20026;-80
2021/12/12 15:38:13;;;;;;;17.38;15.57;;;;;;;9.16;100.00;102132.09;5230746;28;20033;-80
2021/12/12 15:40:50;;;;;;;16.33;14.63;;;;;;;9.27;100.00;102130.34;5242482;28;20119;-81
2021/12/12 15:43:29;;;;;;;17.88;16.13;;;;;;;9.25;100.00;102140.81;5241098;28;20022;-80
2021/12/12 15:46:09;;;;;;;16.75;15.00;;;;;;;9.25;100.00;102140.81;5241770;28;20021;-80
2021/12/12 15:48:45;;;;;;;17.63;15.82;;;;;;;9.23;100.00;102138.31;5242020;28;20385;-81
2021/12/12 15:51:18;;;;;;;;;;;;;;;9.28;100.00;102143.09;5241190;28;20026;-81
2021/12/12 15:53:56;;;;;;;20.00;16.88;;;;;;;9.22;100.00;102146.84;5240642;28;19913;-81
2021/12/12 15:56:37;;;;;;;18.60;16.15;;;;;;;9.32;100.00;102147.03;5236527;28;20025;-81
2021/12/12 15:59:38;;;;;;;20.02;17.45;;;;;;;9.33;100.00;102145.94;5240327;28;20087;-80
2021/12/12 16:02:16;;;;;;;21.83;19.45;;;;;;;9.32;100.00;102144.28;5241402;28;20471;-79
2021/12/12 16:04:49;;;;;;;24.17;21.58;;;;;;;9.27;100.00;102146.94;5239416;28;20029;-79
2021/12/12 16:07:22;;;;;;;31.05;21.83;;;;;;;9.25;100.00;102138.06;5241060;28;20096;-79
2021/12/12 16:10:05;;;;;;;24.23;21.65;;;;;;;9.25;100.00;102149.13;5241047;28;20034;-79
2021/12/12 16:12:46;;;;;;;35.50;26.48;;;;;;;9.25;100.00;102154.66;5247832;28;20032;-79
2021/12/12 16:15:20;;;;;;;35.75;27.48;;;;;;;9.23;100.00;102154.06;5262003;28;20029;-78
2021/12/12 16:17:56;;;;;;;34.00;26.20;;;;;;;9.23;100.00;102151.28;5261713;28;20071;-79
2021/12/12 16:20:34;;;;;;;33.63;27.08;;;;;;;9.27;100.00;102158.84;5263819;28;20100;-78
2021/12/12 16:23:11;;;;;;;36.67;29.80;;;;;;;9.26;100.00;102153.59;5257760;28;20473;-79
2021/12/12 16:25:46;;;;;;;38.58;29.63;;;;;;;9.27;100.00;102150.56;5244541;28;20025;-78
2021/12/12 16:28:26;;;;;;;;;;;;;;;9.28;100.00;102157.78;5240845;28;20037;-78
2021/12/12 16:31:08;;;;;;;42.97;29.58;;;;;;;9.27;100.00;102163.56;5245024;28;19944;-79
2021/12/12 16:33:46;;;;;;;51.20;32.03;;;;;;;9.28;100.00;102162.47;5243356;28;20035;-78
2021/12/12 16:36:25;;;;;;;53.70;35.47;;;;;;;9.29;100.00;102161.38;5243497;28;20029;-78
2021/12/12 16:39:13;;;;;;;50.70;36.47;;;;;;;9.30;100.00;102166.66;5244569;28;20022;-79
2021/12/12 16:41:48;;;;;;;47.35;34.92;;;;;;;9.33;100.00;102176.41;5244390;28;20032;-78
2021/12/12 16:44:31;;;;;;;;;;;;;;;9.34;100.00;102176.16;5245627;28;20033;-79
2021/12/12 16:47:09;;;;;;;50.08;34.33;;;;;;;9.34;100.00;102181.69;5237674;28;19920;-78
2021/12/12 16:49:46;;;;;;;48.63;35.38;;;;;;;9.31;100.00;102176.66;5244814;28;20083;-78
2021/12/12 16:52:26;;;;;;;47.65;31.77;;;;;;;9.35;100.00;102183.38;5244700;28;20033;-79
2021/12/12 16:55:09;;;;;;;49.60;32.97;;;;;;;9.33;100.00;102181.94;5227578;28;20034;-79
2021/12/12 16:57:46;;;;;;;46.83;33.38;;;;;;;9.34;100.00;102180.88;5223801;28;20053;-78
2021/12/12 17:00:25;;;;;;;48.05;31.02;;;;;;;9.36;100.00;102187.00;5223860;28;20044;-79
2021/12/12 17:03:00;;;;;;;46.00;32.42;;;;;;;9.36;100.00;102187.84;5233908;28;20103;-78
2021/12/12 17:05:37;;;;;;;48.05;31.98;;;;;;;9.37;100.00;102183.13;5244565;28;20021;-78
2021/12/12 17:08:16;;;;;;;47.88;34.05;;;;;;;9.38;100.00;102181.19;5243805;28;20022;-78
2021/12/12 17:10:54;;;;;;;43.33;31.65;;;;;;;9.38;100.00;102182.03;5244320;28;20033;-78
2021/12/12 17:13:33;;;;;;;43.08;32.00;;;;;;;9.39;100.00;102183.72;5223965;28;20093;-78
2021/12/12 17:16:05;;;;;;;47.63;33.17;;;;;;;9.43;100.00;102187.66;5223227;28;20057;-78
2021/12/12 17:18:40;;;;;;;48.22;33.08;;;;;;;9.42;100.00;102182.38;5224154;28;20037;-78
2021/12/12 17:21:17;;;;;;;47.38;34.47;;;;;;;9.44;100.00;102188.53;5237951;28;20075;-78
2021/12/12 17:23:59;;;;;;;52.95;33.70;;;;;;;9.47;100.00;102191.63;5242318;28;20076;-76
2021/12/12 17:26:35;;;;;;;46.47;33.97;;;;;;;9.46;100.00;102186.31;5243936;28;20533;-78
2021/12/12 17:29:11;;;;;;;47.42;31.83;;;;;;;9.49;100.00;102194.97;5243285;28;20076;-78
